Time;durP1;ratioP1;P1;durP2;ratioP2;P2;SDS_P1;SDS_P2;PMS_P1;PMS_P2;Temp;Humidity;BMP_temperature;BMP_pressure;BME280_temperature;BME280_humidity;BME280_pressure;Samples;Min_cycle;Max_cycle;Signal;HPM_P1;HPM_P2
2021/04/26 00:00:30;;;;;;;1.30;0.90;;;;;;;1.25;67.17;101751.66;4954040;28;20602;-77
2021/04/26 00:02:57;;;;;;;3.93;0.90;;;;;;;1.30;66.69;101741.25;4935208;29;20247;-77
2021/04/26 00:05:25;;;;;;;1.90;0.97;;;;;;;1.32;66.57;101747.25;4968032;28;20227;-76
2021/04/26 00:07:58;;;;;;;0.97;0.83;;;;;;;1.26;66.36;101753.34;4956156;29;20222;-76
2021/04/26 00:10:26;;;;;;;1.07;0.90;;;;;;;1.24;65.99;101755.34;4924135;28;20195;-76
2021/04/26 00:12:56;;;;;;;0.80;0.70;;;;;;;0.96;66.83;101755.38;4955226;29;20604;-77
2021/04/26 00:15:25;;;;;;;1.70;0.80;;;;;;;1.00;67.59;101752.13;4940590;28;20222;-76
2021/04/26 00:17:53;;;;;;;1.20;0.67;;;;;;;0.91;67.85;101750.56;4939685;29;20191;-76
2021/04/26 00:20:27;;;;;;;1.50;0.70;;;;;;;0.99;68.58;101754.97;4951062;28;20558;-77
2021/04/26 00:22:55;;;;;;;1.37;0.90;;;;;;;0.93;68.43;101761.06;4935583;29;20290;-76
2021/04/26 00:25:21;;;;;;;1.40;0.80;;;;;;;0.95;68.24;101753.69;4920080;29;20179;-76
2021/04/26 00:27:46;;;;;;;1.90;0.80;;;;;;;0.92;69.08;101751.41;4936341;29;20222;-76
2021/04/26 00:30:14;;;;;;;0.80;0.70;;;;;;;0.90;68.50;101746.22;4935259;29;20227;-77
2021/04/26 00:32:42;;;;;;;2.33;0.90;;;;;;;0.81;69.20;101752.69;4950459;28;20231;-77
2021/04/26 00:35:08;;;;;;;1.60;0.90;;;;;;;0.90;69.23;101750.75;4936785;28;20233;-76
2021/04/26 00:37:34;;;;;;;2.10;0.87;;;;;;;0.82;69.26;101749.00;4959454;29;20207;-76
2021/04/26 00:40:05;;;;;;;1.37;0.97;;;;;;;0.87;69.51;101745.78;4947171;29;20211;-76
2021/04/26 00:42:38;;;;;;;4.77;1.00;;;;;;;0.86;70.29;101742.28;4930463;29;20231;-76
2021/04/26 00:45:12;;;;;;;1.23;0.80;;;;;;;0.92;70.46;101743.38;4930776;29;20293;-76
2021/04/26 00:47:45;;;;;;;2.77;1.10;;;;;;;0.89;71.96;101741.06;4923849;29;20736;-77
2021/04/26 00:50:22;;;;;;;2.30;1.00;;;;;;;0.84;71.79;101736.28;4935843;28;20200;-77
2021/04/26 00:52:53;;;;;;;2.17;1.50;;;;;;;1.03;72.05;101735.72;4950882;29;20222;-77
2021/04/26 00:55:22;;;;;;;2.07;1.30;;;;;;;1.12;72.30;101736.44;4935034;29;20226;-77
2021/04/26 00:57:50;;;;;;;1.83;1.20;;;;;;;1.09;72.50;101729.63;4920778;29;20267;-77
2021/04/26 01:00:16;;;;;;;1.30;1.20;;;;;;;1.07;72.46;101733.50;4952236;28;20187;-77
2021/04/26 01:02:44;;;;;;;5.70;1.20;;;;;;;1.02;71.92;101733.22;4934141;29;20208;-76
2021/04/26 01:05:15;;;;;;;1.63;0.90;;;;;;;0.99;72.05;101736.25;4934489;28;20242;-77
2021/04/26 01:07:43;;;;;;;3.67;1.00;;;;;;;0.95;72.89;101732.31;4938395;29;20351;-77
2021/04/26 01:10:12;;;;;;;1.47;1.17;;;;;;;1.00;72.80;101732.59;4953501;28;20270;-77
2021/04/26 01:13:14;;;;;;;0.87;0.80;;;;;;;0.96;71.66;101728.63;4952498;28;20183;-77
2021/04/26 01:15:41;;;;;;;0.70;0.70;;;;;;;0.93;71.46;101728.97;4954215;28;20246;-77
2021/04/26 01:18:16;;;;;;;2.73;1.73;;;;;;;0.81;70.61;101725.13;4953139;29;20191;-78
2021/04/26 01:21:02;;;;;;;3.13;0.90;;;;;;;0.79;71.24;101729.81;4937240;29;20245;-77
2021/04/26 01:23:53;;;;;;;3.57;0.90;;;;;;;0.82;70.75;101721.41;4938053;29;20755;-76
2021/04/26 01:26:44;;;;;;;1.43;0.70;;;;;;;0.74;70.76;101716.16;4968160;28;20227;-75
2021/04/26 01:29:29;;;;;;;1.80;0.93;;;;;;;0.71;70.25;101724.53;4923540;29;20245;-77
2021/04/26 01:31:54;;;;;;;1.80;0.77;;;;;;;0.58;70.94;101716.34;4952505;28;20227;-76
2021/04/26 01:34:22;;;;;;;0.70;0.63;;;;;;;0.51;71.57;101723.44;4968640;28;20221;-77
2021/04/26 01:37:00;;;;;;;1.07;0.70;;;;;;;0.40;72.74;101715.00;4937990;29;20306;-77
2021/04/26 01:39:29;;;;;;;1.17;0.80;;;;;;;0.38;72.68;101708.19;4937033;29;20191;-76
2021/04/26 01:41:55;;;;;;;2.30;0.83;;;;;;;0.33;73.50;101721.25;4935001;28;20237;-77
2021/04/26 01:44:21;;;;;;;1.67;0.90;;;;;;;0.34;73.72;101715.75;4919842;29;20199;-77
2021/04/26 01:46:49;;;;;;;1.40;0.90;;;;;;;0.37;74.13;101717.22;4935399;29;20234;-77
2021/04/26 01:49:18;;;;;;;1.57;0.77;;;;;;;0.37;74.19;101710.06;4936701;29;20191;-77
2021/04/26 01:51:46;;;;;;;1.20;0.90;;;;;;;0.46;74.31;101709.78;4935183;29;20227;-76
2021/04/26 01:54:14;;;;;;;1.53;0.83;;;;;;;0.38;73.71;101701.84;4936069;29;20214;-76
2021/04/26 01:56:42;;;;;;;0.80;0.80;;;;;;;0.50;74.06;101711.06;4936264;29;20231;-76
2021/04/26 01:59:16;;;;;;;1.30;0.90;;;;;;;0.36;74.14;101708.38;4937019;28;20277;-77
2021/04/26 02:01:47;;;;;;;2.57;1.20;;;;;;;0.37;74.81;101714.53;4950685;28;20226;-77
2021/04/26 02:04:16;;;;;;;2.37;0.80;;;;;;;0.48;74.94;101702.41;4920424;29;20207;-76
2021/04/26 02:06:49;;;;;;;1.23;0.87;;;;;;;0.44;75.03;101706.47;4936240;29;20218;-77
2021/04/26 02:09:30;;;;;;;1.63;1.00;;;;;;;0.42;75.89;101703.16;4938227;29;20661;-77
2021/04/26 02:12:12;;;;;;;1.23;1.00;;;;;;;0.40;75.92;101705.19;4950329;28;20223;-76
2021/04/26 02:14:41;;;;;;;1.13;0.80;;;;;;;0.30;75.86;101706.44;4936344;29;20203;-77
2021/04/26 02:17:11;;;;;;;1.93;1.10;;;;;;;0.23;76.49;101707.34;4935312;29;20238;-77
2021/04/26 02:19:38;;;;;;;2.87;1.43;;;;;;;0.09;77.65;101708.09;4936339;29;20178;-77
2021/04/26 02:22:06;;;;;;;1.00;0.90;;;;;;;0.10;77.17;101701.78;4918525;29;20649;-77
2021/04/26 02:24:44;;;;;;;2.43;1.07;;;;;;;-0.02;78.66;101703.19;4936798;29;20277;-76
2021/04/26 02:27:15;;;;;;;2.23;0.87;;;;;;;0.03;79.17;101700.81;4934565;29;20223;-76
2021/04/26 02:29:40;;;;;;;1.10;1.00;;;;;;;0.00;79.27;101695.88;4936221;29;20187;-77
2021/04/26 02:32:12;;;;;;;1.20;0.97;;;;;;;0.09;78.46;101700.09;4934392;29;20219;-76
2021/04/26 02:34:45;;;;;;;1.17;0.90;;;;;;;0.15;78.28;101699.41;4921693;29;20637;-77
2021/04/26 02:37:28;;;;;;;2.63;1.00;;;;;;;0.01;77.70;101693.00;4935242;29;20219;-77
2021/04/26 02:39:55;;;;;;;1.57;0.90;;;;;;;0.02;78.11;101693.84;4935669;29;20193;-77
2021/04/26 02:42:22;;;;;;;1.77;1.10;;;;;;;-0.05;78.11;101692.06;4934539;29;20254;-76
2021/04/26 02:44:52;;;;;;;1.73;0.90;;;;;;;-0.17;78.57;101693.47;4919619;29;20481;-76
2021/04/26 02:47:19;;;;;;;3.20;1.10;;;;;;;-0.19;79.32;101684.81;4934802;29;20223;-77
2021/04/26 02:50:20;;;;;;;2.90;1.00;;;;;;;-0.15;79.67;101684.28;4921248;28;20191;-77
2021/04/26 02:53:05;;;;;;;1.20;0.87;;;;;;;-0.21;80.30;101684.19;4944453;29;20219;-77
2021/04/26 02:55:31;;;;;;;1.17;0.80;;;;;;;-0.30;81.07;101682.56;4950788;28;20282;-77
2021/04/26 02:57:57;;;;;;;1.33;0.80;;;;;;;-0.22;81.09;101682.50;4951316;29;20202;-76
2021/04/26 03:00:23;;;;;;;0.83;0.80;;;;;;;-0.03;81.44;101676.72;4935668;28;20176;-77
2021/04/26 03:03:09;;;;;;;1.30;0.80;;;;;;;0.00;80.48;101677.19;4949223;29;20214;-76
2021/04/26 03:05:38;;;;;;;1.50;0.80;;;;;;;0.10;80.22;101680.41;4953026;28;20302;-76
2021/04/26 03:08:04;;;;;;;1.40;1.00;;;;;;;0.18;80.20;101683.00;4939435;29;20328;-76
2021/04/26 03:10:30;;;;;;;3.70;1.13;;;;;;;0.28;80.00;101672.91;4950105;28;20227;-77
2021/04/26 03:13:00;;;;;;;1.23;0.80;;;;;;;0.38;80.02;101675.16;4919199;29;20242;-76
2021/04/26 03:15:28;;;;;;;1.87;0.80;;;;;;;0.50;80.12;101668.31;4927832;28;20223;-77
2021/04/26 03:17:55;;;;;;;2.73;1.03;;;;;;;0.48;79.95;101670.34;4954085;29;20197;-76
2021/04/26 03:20:24;;;;;;;0.90;0.90;;;;;;;0.59;79.78;101664.56;4954163;28;20261;-76
2021/04/26 03:23:25;;;;;;;1.43;1.00;;;;;;;0.73;78.81;101668.25;4949980;28;20241;-77
2021/04/26 03:25:55;;;;;;;1.47;1.00;;;;;;;0.51;80.43;101659.31;4922587;29;20221;-77
2021/04/26 03:28:21;;;;;;;2.13;1.10;;;;;;;0.54;80.30;101658.94;4923325;29;20265;-76
2021/04/26 03:30:47;;;;;;;2.23;0.93;;;;;;;0.46;79.13;101661.69;4954606;28;20812;-76
2021/04/26 03:33:24;;;;;;;1.73;1.20;;;;;;;0.55;79.45;101657.06;4952931;28;20281;-77
2021/04/26 03:35:55;;;;;;;2.20;1.10;;;;;;;0.38;78.88;101648.44;4943279;28;20218;-76
2021/04/26 03:38:23;;;;;;;1.70;1.00;;;;;;;0.52;78.65;101655.59;4960413;28;20182;-76
2021/04/26 03:40:49;;;;;;;1.80;1.07;;;;;;;0.54;78.51;101652.75;4936180;29;20228;-76
2021/04/26 03:43:17;;;;;;;1.40;1.13;;;;;;;0.63;78.35;101654.34;4941751;29;20215;-76
2021/04/26 03:46:00;;;;;;;2.03;1.10;;;;;;;0.57;78.20;101663.91;4955315;28;20218;-76
2021/04/26 03:48:50;;;;;;;1.03;1.00;;;;;;;0.46;79.86;101658.19;4954498;28;20306;-74
2021/04/26 03:51:24;;;;;;;2.00;0.80;;;;;;;0.45;80.72;101654.69;4940287;28;20278;-76
2021/04/26 03:54:08;;;;;;;4.23;2.10;;;;;;;0.47;80.15;101646.50;4961815;28;20218;-76
2021/04/26 03:56:36;;;;;;;3.07;1.30;;;;;;;0.57;80.47;101647.88;4961728;28;20227;-76
2021/04/26 03:59:02;;;;;;;1.70;1.20;;;;;;;0.56;81.29;101640.88;4937810;28;20183;-78
2021/04/26 04:01:33;;;;;;;0.80;0.80;;;;;;;0.70;82.12;101637.38;4947044;28;20214;-74
2021/04/26 04:04:00;;;;;;;1.33;1.00;;;;;;;0.88;81.57;101624.44;4950817;28;20787;-75
2021/04/26 04:06:37;;;;;;;1.17;1.00;;;;;;;1.08;81.45;101631.72;4938795;28;20759;-75
2021/04/26 04:09:38;;;;;;;2.47;0.80;;;;;;;1.15;80.49;101636.13;4965449;28;20230;-75
2021/04/26 04:12:27;;;;;;;1.67;1.10;;;;;;;1.13;80.82;101635.44;4972425;28;20773;-75
2021/04/26 04:15:04;;;;;;;1.60;1.00;;;;;;;1.23;80.57;101641.34;4958578;28;20193;-76
2021/04/26 04:17:32;;;;;;;1.13;1.00;;;;;;;1.07;79.85;101639.91;4956563;28;20206;-76
2021/04/26 04:20:01;;;;;;;2.07;1.10;;;;;;;1.04;80.72;101632.25;4957718;28;20265;-75
2021/04/26 04:22:31;;;;;;;1.93;1.00;;;;;;;1.21;80.67;101632.69;4972925;28;20229;-77
2021/04/26 04:25:10;;;;;;;1.80;1.20;;;;;;;1.37;80.19;101621.72;4962455;28;20183;-74
2021/04/26 04:27:36;;;;;;;5.10;1.07;;;;;;;1.50;79.58;101624.53;4938016;29;20614;-76
2021/04/26 04:30:08;;;;;;;1.90;1.00;;;;;;;1.35;79.41;101623.78;4923827;28;20187;-75
2021/04/26 04:32:52;;;;;;;1.80;0.73;;;;;;;1.10;80.48;101626.16;4940808;29;20270;-75
2021/04/26 04:35:30;;;;;;;1.17;0.97;;;;;;;1.00;80.70;101618.44;4940336;28;20776;-75
2021/04/26 04:38:31;;;;;;;2.60;1.00;;;;;;;0.96;81.54;101627.03;4904505;29;20243;-76
2021/04/26 04:41:15;;;;;;;4.40;1.20;;;;;;;0.67;83.15;101627.03;4947751;28;20265;-74
2021/04/26 04:43:41;;;;;;;1.70;1.00;;;;;;;0.73;82.92;101625.47;4924768;29;20203;-75
2021/04/26 04:46:09;;;;;;;2.47;1.10;;;;;;;0.96;83.21;101621.69;4924168;29;20285;-76
2021/04/26 04:48:47;;;;;;;7.37;1.10;;;;;;;0.98;82.80;101625.00;4927382;29;20214;-75
2021/04/26 04:51:22;;;;;;;1.20;0.97;;;;;;;1.01;83.27;101622.78;4941680;28;20234;-75
2021/04/26 04:53:54;;;;;;;1.97;1.13;;;;;;;1.34;82.23;101613.28;4941570;29;20203;-75
2021/04/26 04:56:23;;;;;;;1.33;0.80;;;;;;;1.59;81.28;101615.38;4926300;29;20811;-74
2021/04/26 04:58:49;;;;;;;0.87;0.87;;;;;;;1.71;80.33;101605.84;4956830;29;20277;-75
2021/04/26 05:01:20;;;;;;;1.10;1.00;;;;;;;2.01;79.83;101614.31;4940766;28;20237;-75
2021/04/26 05:04:05;;;;;;;1.97;1.27;;;;;;;1.97;78.44;101613.06;4957905;29;20484;-75
2021/04/26 05:06:54;;;;;;;3.30;1.20;;;;;;;1.85;80.02;101607.59;4936674;29;20230;-79
2021/04/26 05:09:41;;;;;;;1.63;1.10;;;;;;;2.08;78.27;101601.00;4938902;29;20200;-76
2021/04/26 05:12:39;;;;;;;2.87;1.13;;;;;;;2.19;77.69;101595.91;4918842;28;20226;-76
2021/04/26 05:15:24;;;;;;;2.63;1.10;;;;;;;2.39;77.28;101602.25;4928001;28;20298;-76
2021/04/26 05:17:51;;;;;;;1.10;1.00;;;;;;;2.55;76.20;101588.53;4954702;28;20183;-76
2021/04/26 05:20:24;;;;;;;4.40;1.40;;;;;;;2.80;74.56;101594.03;4955040;28;20565;-75
2021/04/26 05:22:49;;;;;;;1.83;1.13;;;;;;;2.50;76.05;101590.97;4955811;29;20210;-71
2021/04/26 05:25:15;;;;;;;28.57;17.53;;;;;;;2.71;75.27;101594.38;4940580;28;20187;-75
2021/04/26 05:27:43;;;;;;;6.97;4.47;;;;;;;2.82;75.14;101586.59;4941535;29;20238;-77
2021/04/26 05:30:11;;;;;;;3.90;1.40;;;;;;;2.95;74.72;101575.94;4957166;28;20543;-75
2021/04/26 05:32:40;;;;;;;2.10;1.20;;;;;;;2.97;73.47;101579.22;4957615;28;20198;-77
2021/04/26 05:35:32;;;;;;;1.83;0.93;;;;;;;3.01;73.38;101583.16;4945324;28;20223;-76
2021/04/26 05:38:13;;;;;;;2.83;1.20;;;;;;;3.10;73.63;101587.34;4928019;29;20270;-76
2021/04/26 05:40:52;;;;;;;1.50;1.17;;;;;;;3.34;72.97;101592.97;5107152;27;20558;-75
2021/04/26 05:43:19;;;;;;;2.27;1.40;;;;;;;3.51;70.79;101587.00;5055021;28;20205;-76
2021/04/26 05:45:51;;;;;;;2.40;1.37;;;;;;;3.84;69.44;101585.19;5038465;28;20218;-75
2021/04/26 05:48:21;;;;;;;3.17;1.13;;;;;;;4.08;68.91;101589.94;5038943;28;20178;-77
2021/04/26 05:50:47;;;;;;;1.70;1.00;;;;;;;4.23;67.69;101573.38;5053651;28;20428;-76
2021/04/26 05:53:15;;;;;;;2.37;1.00;;;;;;;4.04;67.78;101586.00;5036973;28;20577;-76
2021/04/26 05:55:46;;;;;;;1.53;1.20;;;;;;;4.05;67.07;101593.06;5037069;28;20230;-76
2021/04/26 05:58:14;;;;;;;2.43;1.20;;;;;;;3.81;67.69;101585.63;5037897;28;20178;-77
2021/04/26 06:00:42;;;;;;;2.63;1.23;;;;;;;3.60;69.07;101596.53;5037552;28;20230;-74
2021/04/26 06:03:10;;;;;;;2.63;1.20;;;;;;;4.00;66.76;101600.91;5052975;28;20212;-76
2021/04/26 06:05:42;;;;;;;1.20;1.10;;;;;;;4.28;64.92;101588.88;5037050;28;20218;-74
2021/04/26 06:08:11;;;;;;;1.50;0.93;;;;;;;4.53;63.23;101593.41;5071860;28;20178;-75
2021/04/26 06:10:38;;;;;;;1.57;0.93;;;;;;;4.88;62.56;101592.06;5036752;28;20222;-74
2021/04/26 06:13:04;;;;;;;3.93;1.17;;;;;;;4.53;62.62;101592.56;5065213;28;20552;-78
2021/04/26 06:15:30;;;;;;;2.10;1.07;;;;;;;4.69;61.57;101587.56;5030239;28;20238;-75
2021/04/26 06:18:18;;;;;;;2.23;1.20;;;;;;;5.02;60.95;101589.91;5073863;28;20193;-76
2021/04/26 06:20:47;;;;;;;2.27;1.00;;;;;;;4.88;59.17;101592.06;5057263;28;20260;-76
2021/04/26 06:23:17;;;;;;;1.77;0.90;;;;;;;4.62;59.63;101592.13;5041447;28;20206;-75
2021/04/26 06:25:48;;;;;;;1.57;0.93;;;;;;;5.02;60.68;101595.31;5089165;28;20275;-75
2021/04/26 06:28:16;;;;;;;3.67;1.10;;;;;;;5.31;59.12;101589.38;5073617;28;20264;-75
2021/04/26 06:30:45;;;;;;;2.20;1.40;;;;;;;5.32;57.38;101585.63;5072150;28;20230;-75
2021/04/26 06:33:15;;;;;;;3.73;2.10;;;;;;;5.55;58.24;101592.13;5057120;28;20217;-76
2021/04/26 06:35:53;;;;;;;5.60;2.50;;;;;;;5.88;57.44;101582.78;5073193;28;20230;-76
2021/04/26 06:38:19;;;;;;;3.67;1.80;;;;;;;6.14;56.47;101585.25;5073645;28;20603;-76
2021/04/26 06:40:45;;;;;;;2.37;1.60;;;;;;;5.85;56.08;101582.41;5072382;28;20229;-75
2021/04/26 06:43:15;;;;;;;4.37;1.70;;;;;;;5.64;58.27;101590.81;5073422;28;20206;-76
2021/04/26 06:45:41;;;;;;;3.43;1.30;;;;;;;5.54;58.11;101595.03;5089015;28;20265;-77
2021/04/26 06:48:14;;;;;;;2.33;1.30;;;;;;;6.00;57.25;101591.81;5090130;28;20200;-76
2021/04/26 06:50:40;;;;;;;2.47;1.10;;;;;;;6.16;56.72;101581.28;5051564;28;20703;-76
2021/04/26 06:53:08;;;;;;;3.53;1.10;;;;;;;6.51;55.95;101577.00;5059361;28;20237;-75
2021/04/26 06:55:36;;;;;;;1.47;1.00;;;;;;;6.91;55.60;101576.34;5075558;28;20229;-75
2021/04/26 06:58:02;;;;;;;2.23;0.90;;;;;;;7.12;53.55;101571.28;5094674;28;20182;-76
2021/04/26 07:00:30;;;;;;;1.73;1.00;;;;;;;6.99;52.12;101578.72;5042125;28;20224;-76
2021/04/26 07:02:55;;;;;;;2.33;1.00;;;;;;;7.36;50.83;101581.97;5074849;28;20213;-76
2021/04/26 07:05:24;;;;;;;3.00;0.83;;;;;;;7.75;50.63;101567.88;5058261;28;20178;-76
2021/04/26 07:07:50;;;;;;;4.30;0.87;;;;;;;7.99;49.19;101566.88;5043159;28;20606;-75
2021/04/26 07:10:18;;;;;;;0.83;0.70;;;;;;;8.32;48.03;101563.38;5055238;28;20188;-76
2021/04/26 07:12:46;;;;;;;5.17;0.80;;;;;;;8.54;46.69;101553.63;5003289;28;20222;-75
2021/04/26 07:15:12;;;;;;;2.67;0.70;;;;;;;8.96;46.05;101556.72;5019974;28;20192;-75
2021/04/26 07:17:43;;;;;;;1.07;0.67;;;;;;;9.09;44.76;101545.59;5052587;28;20186;-76
2021/04/26 07:20:12;;;;;;;2.77;0.80;;;;;;;9.13;44.33;101545.94;5026485;28;20217;-75
2021/04/26 07:22:40;;;;;;;1.93;0.60;;;;;;;9.29;43.44;101546.81;5045067;28;20174;-76
2021/04/26 07:25:06;;;;;;;2.47;0.63;;;;;;;9.52;43.68;101540.44;5006427;28;20186;-77
2021/04/26 07:27:35;;;;;;;0.93;0.70;;;;;;;9.57;41.85;101542.19;5056108;28;20183;-76
2021/04/26 07:30:03;;;;;;;0.70;0.70;;;;;;;9.38;42.16;101539.94;5020289;28;20191;-78
2021/04/26 07:32:29;;;;;;;1.03;0.90;;;;;;;9.82;41.79;101539.94;5044086;28;20314;-76
2021/04/26 07:34:54;;;;;;;1.30;0.83;;;;;;;9.34;44.31;101544.22;5056747;28;20687;-75
2021/04/26 07:37:22;;;;;;;4.33;0.80;;;;;;;9.17;42.28;101547.91;5040361;28;20226;-76
2021/04/26 07:39:52;;;;;;;1.63;0.80;;;;;;;9.08;40.01;101554.78;5008658;28;20302;-76
2021/04/26 07:42:18;;;;;;;3.00;0.90;;;;;;;9.39;41.05;101546.19;5021999;28;20229;-74
2021/04/26 07:44:44;;;;;;;0.90;0.80;;;;;;;9.18;40.42;101541.44;5039448;28;20207;-75
2021/04/26 07:47:10;;;;;;;3.03;0.70;;;;;;;9.42;40.24;101541.09;5038543;28;20230;-76
2021/04/26 07:49:40;;;;;;;1.60;0.93;;;;;;;9.61;39.17;101546.06;5055366;28;20194;-75
2021/04/26 07:52:06;;;;;;;0.83;0.80;;;;;;;10.01;39.38;101535.94;5021318;28;20610;-75
2021/04/26 07:54:34;;;;;;;4.93;0.70;;;;;;;9.92;39.37;101542.84;5039288;28;20203;-75
2021/04/26 07:56:59;;;;;;;1.63;0.80;;;;;;;10.06;38.29;101538.72;5021017;28;20238;-75
2021/04/26 07:59:27;;;;;;;1.53;0.70;;;;;;;10.22;39.80;101538.72;5038399;28;20202;-76
2021/04/26 08:01:53;;;;;;;1.23;0.70;;;;;;;10.07;38.95;101526.78;5020596;28;20827;-76
2021/04/26 08:04:19;;;;;;;2.10;0.80;;;;;;;10.62;38.45;101523.00;5037930;28;20205;-75
2021/04/26 08:06:44;;;;;;;1.87;0.60;;;;;;;10.43;37.86;101524.38;5054546;28;20223;-75
2021/04/26 08:09:12;;;;;;;0.90;0.77;;;;;;;9.95;38.83;101526.06;5022857;28;20187;-76
2021/04/26 08:11:38;;;;;;;1.03;0.83;;;;;;;9.76;38.90;101521.94;5074053;28;20271;-76
2021/04/26 08:14:04;;;;;;;2.20;0.70;;;;;;;10.05;38.82;101531.66;5058040;28;20186;-76
2021/04/26 08:16:32;;;;;;;2.03;0.77;;;;;;;10.31;38.20;101522.81;5074320;28;20603;-76
2021/04/26 08:18:57;;;;;;;1.07;0.87;;;;;;;10.60;36.87;101515.09;5041461;28;20285;-75
2021/04/26 08:21:23;;;;;;;3.17;1.00;;;;;;;9.97;38.12;101525.81;5058294;28;20226;-75
2021/04/26 08:23:51;;;;;;;1.93;0.87;;;;;;;10.52;38.36;101512.81;5042143;28;20195;-77
2021/04/26 08:26:16;;;;;;;1.83;0.90;;;;;;;10.80;37.76;101504.50;5041608;28;20711;-76
2021/04/26 08:28:45;;;;;;;1.97;1.00;;;;;;;11.01;37.76;101504.50;5026199;28;20202;-75
2021/04/26 08:31:11;;;;;;;2.13;1.00;;;;;;;11.71;37.35;101508.78;5040898;28;20263;-76
2021/04/26 08:33:39;;;;;;;1.90;1.10;;;;;;;11.58;36.66;101510.03;5057114;28;20776;-75
2021/04/26 08:36:04;;;;;;;2.90;0.90;;;;;;;11.15;36.65;101498.41;5041494;28;20632;-75
2021/04/26 08:38:32;;;;;;;2.60;0.90;;;;;;;11.07;36.88;101510.81;5056006;28;20231;-74
2021/04/26 08:41:02;;;;;;;2.07;1.20;;;;;;;10.94;37.82;101508.47;5021888;28;20635;-74
2021/04/26 08:43:29;;;;;;;1.10;1.00;;;;;;;11.01;37.30;101500.97;5054467;28;20207;-75
2021/04/26 08:45:59;;;;;;;2.30;1.07;;;;;;;11.53;37.00;101503.72;5021665;28;20234;-76
2021/04/26 08:48:25;;;;;;;1.03;0.83;;;;;;;11.06;37.23;101506.44;5055178;28;20198;-76
2021/04/26 08:50:50;;;;;;;2.00;1.20;;;;;;;10.93;36.93;101509.53;5038094;28;20218;-76
2021/04/26 08:53:16;;;;;;;3.73;1.30;;;;;;;11.52;37.24;101512.13;5053991;28;20632;-75
2021/04/26 08:55:44;;;;;;;1.77;1.30;;;;;;;11.68;36.64;101512.81;5005586;28;20646;-76
2021/04/26 08:58:10;;;;;;;2.50;0.97;;;;;;;11.62;36.81;101505.72;5022127;28;20278;-76
2021/04/26 09:00:40;;;;;;;7.37;1.83;;;;;;;12.13;36.65;101500.41;5021553;28;20585;-74
2021/04/26 09:03:08;;;;;;;1.80;1.20;;;;;;;12.01;36.30;101499.81;5054325;28;20256;-75
2021/04/26 09:05:37;;;;;;;1.17;1.07;;;;;;;12.14;36.79;101493.91;5037965;28;20226;-75
2021/04/26 09:08:05;;;;;;;4.07;1.53;;;;;;;12.25;35.87;101486.59;5022272;28;20198;-75
2021/04/26 09:10:42;;;;;;;2.43;1.20;;;;;;;11.98;35.68;101494.06;5028676;28;20303;-75
2021/04/26 09:13:24;;;;;;;5.50;1.33;;;;;;;10.91;36.27;101492.66;5033322;28;20251;-76
2021/04/26 09:15:59;;;;;;;3.20;1.47;;;;;;;10.93;37.36;101488.63;5066852;28;20325;-75
2021/04/26 09:18:50;;;;;;;1.83;1.10;;;;;;;11.00;37.72;101489.25;5069680;28;20189;-75
2021/04/26 09:21:31;;;;;;;2.47;1.20;;;;;;;11.72;37.94;101488.66;5093863;28;20314;-75
2021/04/26 09:24:18;;;;;;;2.03;1.20;;;;;;;11.53;35.82;101484.66;5059412;28;20222;-75
2021/04/26 09:26:49;;;;;;;2.03;1.50;;;;;;;11.26;36.88;101478.41;5059040;28;20232;-76
2021/04/26 09:29:25;;;;;;;2.13;1.20;;;;;;;10.99;36.38;101481.34;5041704;28;20217;-75
2021/04/26 09:32:06;;;;;;;2.70;1.20;;;;;;;10.87;36.94;101473.31;5056299;28;20226;-76
2021/04/26 09:34:51;;;;;;;4.33;1.57;;;;;;;10.82;36.41;101469.72;5059032;28;20248;-75
2021/04/26 09:37:19;;;;;;;2.63;1.20;;;;;;;11.03;35.91;101466.19;5043075;28;20303;-75
2021/04/26 09:39:56;;;;;;;1.30;0.97;;;;;;;11.39;35.56;101456.22;5074959;28;20209;-75
2021/04/26 09:42:45;;;;;;;2.60;1.23;;;;;;;11.75;34.68;101461.72;5040362;28;20225;-75
2021/04/26 09:45:24;;;;;;;2.70;1.20;;;;;;;12.28;33.85;101447.94;5074571;28;20272;-75
2021/04/26 09:48:08;;;;;;;2.83;1.17;;;;;;;12.29;34.52;101442.25;5074693;28;20560;-75
2021/04/26 09:50:53;;;;;;;1.73;1.20;;;;;;;11.62;35.41;101450.47;5029442;28;20222;-76
2021/04/26 09:53:27;;;;;;;2.00;1.13;;;;;;;12.18;35.96;101445.16;5062626;28;20232;-75
2021/04/26 09:55:55;;;;;;;1.50;1.40;;;;;;;12.16;33.78;101448.16;5051027;28;20297;-75
2021/04/26 09:58:24;;;;;;;1.53;1.20;;;;;;;11.89;33.82;101445.81;5053503;28;20429;-76
2021/04/26 10:00:52;;;;;;;2.83;1.60;;;;;;;12.13;36.01;101454.13;5069506;28;20319;-74
2021/04/26 10:03:19;;;;;;;3.80;1.30;;;;;;;12.41;33.76;101430.03;5034115;28;20206;-75
2021/04/26 10:05:49;;;;;;;2.33;1.47;;;;;;;12.40;33.60;101424.88;5060334;28;20217;-76
2021/04/26 10:08:17;;;;;;;1.30;1.20;;;;;;;12.77;33.07;101423.66;5044762;28;20182;-75
2021/04/26 10:10:45;;;;;;;1.43;1.30;;;;;;;12.68;33.63;101431.50;5027287;28;20236;-74
2021/04/26 10:13:11;;;;;;;2.07;1.40;;;;;;;12.14;33.30;101433.16;5057632;28;20281;-74
2021/04/26 10:15:37;;;;;;;4.27;1.70;;;;;;;11.47;35.23;101439.47;5074811;28;20289;-76
2021/04/26 10:18:08;;;;;;;1.37;1.27;;;;;;;11.51;33.76;101432.41;5043170;28;20308;-75
2021/04/26 10:20:40;;;;;;;3.27;1.30;;;;;;;11.88;35.25;101428.63;5058749;28;20607;-75
2021/04/26 10:23:26;;;;;;;1.40;1.20;;;;;;;11.86;35.33;101427.25;5042586;28;20313;-75
2021/04/26 10:25:51;;;;;;;1.67;1.30;;;;;;;11.54;35.66;101432.72;5061742;28;20707;-77
2021/04/26 10:28:31;;;;;;;2.23;1.40;;;;;;;11.21;34.52;101437.56;5062132;28;20231;-75
2021/04/26 10:31:07;;;;;;;1.53;1.17;;;;;;;11.35;34.40;101427.88;5079550;28;20222;-74
2021/04/26 10:33:58;;;;;;;2.87;1.33;;;;;;;11.93;34.28;101423.22;5045373;28;20600;-75
2021/04/26 10:36:56;;;;;;;1.90;1.30;;;;;;;11.58;34.81;101422.94;5061810;28;20232;-75
2021/04/26 10:39:22;;;;;;;5.40;1.50;;;;;;;11.43;34.50;101419.28;5079031;28;20756;-75
2021/04/26 10:41:59;;;;;;;1.63;1.23;;;;;;;12.03;34.69;101409.66;5077105;28;20615;-75
2021/04/26 10:44:36;;;;;;;1.53;1.00;;;;;;;12.71;33.41;101403.72;5029262;28;20210;-78
2021/04/26 10:47:17;;;;;;;1.40;1.30;;;;;;;12.95;32.69;101404.06;5077169;28;20245;-74
2021/04/26 10:49:44;;;;;;;2.00;1.20;;;;;;;13.57;31.12;101393.53;5078115;28;20182;-74
2021/04/26 10:52:31;;;;;;;1.27;1.10;;;;;;;13.41;32.17;101382.06;5043033;28;20260;-76
2021/04/26 10:55:12;;;;;;;3.83;1.50;;;;;;;14.11;29.59;101387.19;5077292;28;20670;-75
2021/04/26 10:57:40;;;;;;;2.53;1.23;;;;;;;14.25;30.22;101367.19;5060972;28;20222;-75
2021/04/26 11:00:22;;;;;;;1.97;1.57;;;;;;;14.90;28.94;101372.34;5060866;28;20300;-75
2021/04/26 11:02:51;;;;;;;4.15;1.30;;;;;;;14.71;27.56;101368.63;5055380;28;20582;-75
2021/04/26 11:05:20;;;;;;;1.52;1.20;;;;;;;14.51;26.39;101374.19;5040336;28;20179;-75
2021/04/26 11:07:55;;;;;;;1.25;1.02;;;;;;;14.91;26.87;101355.66;5074079;28;20167;-75
2021/04/26 11:10:34;;;;;;;1.73;1.25;;;;;;;14.93;27.26;101353.44;5036821;28;20234;-75
2021/04/26 11:13:01;;;;;;;2.80;1.20;;;;;;;14.09;28.07;101361.25;5036496;28;20252;-75
2021/04/26 11:15:29;;;;;;;1.20;1.10;;;;;;;13.71;28.04;101358.28;5021551;28;20242;-75
2021/04/26 11:17:55;;;;;;;2.73;1.57;;;;;;;13.28;30.58;101367.03;5020373;28;20192;-75
2021/04/26 11:20:24;;;;;;;3.10;1.30;;;;;;;12.94;30.58;101356.09;5036250;28;20779;-75
2021/04/26 11:22:57;;;;;;;2.13;1.40;;;;;;;12.44;30.72;101352.41;5030329;28;20281;-76
2021/04/26 11:25:43;;;;;;;2.90;1.50;;;;;;;12.04;31.27;101357.66;5022464;28;20281;-75
2021/04/26 11:28:14;;;;;;;2.27;1.00;;;;;;;12.30;31.31;101345.78;5037795;28;20262;-75
2021/04/26 11:30:49;;;;;;;2.90;1.40;;;;;;;11.99;31.91;101338.56;5020340;28;20238;-75
2021/04/26 11:33:15;;;;;;;1.53;1.17;;;;;;;12.66;31.59;101344.84;5019674;28;20206;-76
2021/04/26 11:36:09;;;;;;;2.23;1.27;;;;;;;13.51;30.64;101328.28;5018808;28;20219;-75
2021/04/26 11:38:36;;;;;;;2.73;1.60;;;;;;;13.02;30.83;101329.13;5053686;28;20222;-75
2021/04/26 11:41:02;;;;;;;1.97;1.20;;;;;;;13.36;31.11;101322.84;5043792;28;20223;-75
2021/04/26 11:43:30;;;;;;;1.77;1.30;;;;;;;13.73;30.27;101326.88;5039588;28;20213;-75
2021/04/26 11:46:00;;;;;;;2.13;1.20;;;;;;;13.50;31.37;101322.00;5023104;28;20695;-74
2021/04/26 11:48:27;;;;;;;3.57;1.67;;;;;;;13.10;31.87;101329.38;5040488;28;20538;-75
2021/04/26 11:50:55;;;;;;;3.33;2.30;;;;;;;13.05;32.46;101331.28;5023081;28;20219;-75